Time;durP1;ratioP1;P1;durP2;ratioP2;P2;SDS_P1;SDS_P2;PMS_P1;PMS_P2;Temp;Humidity;BMP_temperature;BMP_pressure;BME280_temperature;BME280_humidity;BME280_pressure;Samples;Min_cycle;Max_cycle;Signal;HPM_P1;HPM_P2
2021/07/25 00:00:14;;;;;;;17.35;14.07;;;19.20;99.90;;;;;;5101166;28;20440;-88
2021/07/25 00:02:40;;;;;;;15.93;13.80;;;19.30;99.90;;;;;;5115760;27;20027;-86
2021/07/25 00:05:08;;;;;;;16.58;13.93;;;19.20;99.90;;;;;;5109194;28;20379;-89
2021/07/25 00:07:36;;;;;;;16.25;13.05;;;19.20;99.90;;;;;;5099293;28;20028;-88
2021/07/25 00:10:03;;;;;;;15.20;13.43;;;19.20;99.90;;;;;;5118428;28;20035;-90
2021/07/25 00:12:38;;;;;;;17.25;14.25;;;19.20;99.90;;;;;;5116224;28;20035;-87
2021/07/25 00:15:38;;;;;;;15.90;14.15;;;19.20;99.90;;;;;;5082510;28;20043;-88
2021/07/25 00:18:14;;;;;;;15.27;12.75;;;19.20;99.90;;;;;;5082985;28;20123;-88
2021/07/25 00:20:42;;;;;;;17.55;13.90;;;19.10;99.90;;;;;;5096917;28;20111;-87
2021/07/25 00:23:17;;;;;;;16.73;14.13;;;19.10;99.90;;;;;;5099879;28;20024;-87
2021/07/25 00:25:48;;;;;;;15.80;12.77;;;19.10;99.90;;;;;;5115940;28;20487;-87
2021/07/25 00:28:17;;;;;;;14.15;12.65;;;19.10;99.90;;;;;;5099919;28;20004;-87
2021/07/25 00:30:43;;;;;;;16.23;13.07;;;19.10;99.90;;;;;;5100130;28;20024;-88
2021/07/25 00:33:09;;;;;;;17.80;13.65;;;19.10;99.90;;;;;;5116770;28;20122;-88
2021/07/25 00:35:38;;;;;;;15.57;13.13;;;19.10;99.90;;;;;;5098420;28;20138;-86
2021/07/25 00:38:05;;;;;;;14.98;12.85;;;19.10;99.90;;;;;;5079306;28;20040;-89
2021/07/25 00:40:57;;;;;;;14.50;13.00;;;19.10;99.90;;;;;;5082436;28;20131;-87
2021/07/25 00:43:27;;;;;;;17.23;13.77;;;19.10;99.90;;;;;;5099712;28;20040;-88
2021/07/25 00:45:57;;;;;;;15.43;13.77;;;19.10;99.90;;;;;;5098910;28;20406;-88
2021/07/25 00:48:25;;;;;;;15.68;13.65;;;19.10;99.90;;;;;;5115515;28;20084;-87
2021/07/25 00:50:53;;;;;;;18.17;15.20;;;19.10;99.90;;;;;;5099099;28;20027;-88
2021/07/25 00:53:20;;;;;;;17.85;14.85;;;19.00;99.90;;;;;;5115804;28;20027;-88
2021/07/25 00:55:47;;;;;;;17.60;15.40;;;19.00;99.90;;;;;;5098953;28;20028;-87
2021/07/25 00:58:15;;;;;;;19.13;16.83;;;19.00;99.90;;;;;;5109645;28;20474;-87
2021/07/25 01:00:47;;;;;;;17.60;15.40;;;19.00;99.90;;;;;;5093255;28;20028;-87
2021/07/25 01:03:48;;;;;;;19.52;16.20;;;19.00;99.90;;;;;;5082498;28;20067;-89
2021/07/25 01:06:37;;;;;;;17.00;14.77;;;18.90;99.90;;;;;;5106639;28;20016;-90
2021/07/25 01:09:14;;;;;;;18.23;14.80;;;19.00;99.90;;;;;;5097984;28;20030;-88
2021/07/25 01:11:58;;;;;;;17.75;14.98;;;19.00;99.90;;;;;;5109180;28;20023;-88
2021/07/25 01:14:38;;;;;;;17.27;14.73;;;18.90;99.90;;;;;;5092380;28;20062;-86
2021/07/25 01:17:23;;;;;;;17.13;13.75;;;18.90;99.90;;;;;;5096218;28;20452;-88
2021/07/25 01:19:52;;;;;;;16.08;13.68;;;18.90;99.90;;;;;;5093476;28;20024;-87
2021/07/25 01:22:20;;;;;;;17.23;14.77;;;18.90;99.90;;;;;;5092254;28;20027;-89
2021/07/25 01:24:47;;;;;;;18.33;14.38;;;18.90;99.90;;;;;;5094803;28;20476;-87
2021/07/25 01:27:33;;;;;;;17.42;14.18;;;18.90;99.90;;;;;;5098556;28;20031;-88
2021/07/25 01:30:06;;;;;;;16.42;14.13;;;18.90;99.90;;;;;;5095735;28;20087;-88
2021/07/25 01:32:41;;;;;;;15.55;13.60;;;18.80;99.90;;;;;;5089919;28;20004;-87
2021/07/25 01:35:08;;;;;;;16.98;14.82;;;18.80;99.90;;;;;;5097500;28;20012;-86
2021/07/25 01:37:37;;;;;;;16.10;14.40;;;18.80;99.90;;;;;;5091395;28;20028;-87
2021/07/25 01:40:20;;;;;;;17.95;15.30;;;18.80;99.90;;;;;;5110705;27;20088;-88
2021/07/25 01:42:46;;;;;;;18.25;14.57;;;18.90;99.90;;;;;;5118867;28;20539;-87
2021/07/25 01:45:13;;;;;;;18.80;15.02;;;18.80;99.90;;;;;;5117793;28;20016;-86
2021/07/25 01:47:42;;;;;;;19.80;15.15;;;18.80;99.90;;;;;;5118004;28;20285;-84
2021/07/25 01:50:10;;;;;;;19.98;17.67;;;18.80;99.90;;;;;;5087356;28;20032;-86
2021/07/25 01:52:36;;;;;;;24.77;20.25;;;18.80;99.90;;;;;;5120322;28;20028;-86
2021/07/25 01:55:03;;;;;;;24.27;20.35;;;18.80;99.90;;;;;;5134913;27;20032;-85
2021/07/25 01:57:29;;;;;;;20.17;17.77;;;18.80;99.90;;;;;;5085043;28;20028;-87
2021/07/25 01:59:55;;;;;;;21.00;17.02;;;18.70;99.90;;;;;;5099111;28;20039;-85
2021/07/25 02:02:21;;;;;;;20.92;16.65;;;18.70;99.90;;;;;;5116669;28;20024;-86
2021/07/25 02:04:48;;;;;;;20.67;16.70;;;18.70;99.90;;;;;;5098323;28;20024;-88
2021/07/25 02:07:17;;;;;;;17.77;15.02;;;18.70;99.90;;;;;;5117668;28;20020;-89
2021/07/25 02:09:48;;;;;;;22.27;17.02;;;18.60;99.90;;;;;;5099491;28;20024;-88
2021/07/25 02:12:15;;;;;;;21.75;17.67;;;18.60;99.90;;;;;;5082134;28;20480;-88
2021/07/25 02:14:41;;;;;;;22.92;18.13;;;18.60;99.90;;;;;;5098569;28;20085;-88
2021/07/25 02:17:08;;;;;;;17.02;15.15;;;18.60;99.90;;;;;;5116406;28;20028;-87
2021/07/25 02:19:34;;;;;;;19.50;17.30;;;18.50;99.90;;;;;;5117785;28;20048;-88
2021/07/25 02:22:03;;;;;;;20.35;17.20;;;18.50;99.90;;;;;;5099536;28;20024;-88
2021/07/25 02:24:31;;;;;;;19.00;15.35;;;18.50;99.90;;;;;;5082284;28;20027;-87
2021/07/25 02:26:59;;;;;;;17.48;14.80;;;18.40;99.90;;;;;;5118503;28;20036;-88
2021/07/25 02:29:25;;;;;;;18.70;16.05;;;18.40;99.90;;;;;;5101858;28;20095;-88
2021/07/25 02:31:51;;;;;;;18.55;15.45;;;18.30;99.90;;;;;;5103952;28;20087;-84
2021/07/25 02:34:17;;;;;;;20.45;16.65;;;18.30;99.90;;;;;;5116584;28;20069;-83
2021/07/25 02:36:42;;;;;;;18.00;15.48;;;18.30;99.90;;;;;;5134993;28;20020;-85
2021/07/25 02:39:12;;;;;;;17.88;15.05;;;18.30;99.90;;;;;;5113712;28;20054;-87
2021/07/25 02:41:38;;;;;;;16.85;14.75;;;18.30;99.90;;;;;;5086366;28;20027;-88
2021/07/25 02:44:06;;;;;;;18.77;15.63;;;18.20;99.90;;;;;;5103248;28;20044;-88
2021/07/25 02:46:33;;;;;;;19.38;15.93;;;18.20;99.90;;;;;;5103921;28;20031;-89
2021/07/25 02:49:02;;;;;;;21.17;17.88;;;18.20;99.90;;;;;;5103349;28;20081;-90
2021/07/25 02:51:29;;;;;;;18.52;16.33;;;18.20;99.90;;;;;;5102448;28;20032;-88
2021/07/25 02:53:59;;;;;;;18.80;16.80;;;18.10;99.90;;;;;;5086310;28;20027;-88
2021/07/25 02:56:25;;;;;;;21.65;17.70;;;18.10;99.90;;;;;;5086275;28;20035;-88
2021/07/25 02:58:56;;;;;;;18.73;16.38;;;18.10;99.90;;;;;;5102885;28;20059;-89
2021/07/25 03:01:22;;;;;;;20.30;17.70;;;18.10;99.90;;;;;;5087365;28;20024;-88
2021/07/25 03:03:49;;;;;;;18.85;16.27;;;18.10;99.90;;;;;;5103440;28;20031;-88
2021/07/25 03:06:15;;;;;;;20.58;17.27;;;18.00;99.90;;;;;;5121502;28;20045;-87
2021/07/25 03:08:43;;;;;;;20.75;17.13;;;18.00;99.90;;;;;;5128476;28;20016;-85
2021/07/25 03:11:11;;;;;;;18.63;15.93;;;18.00;99.90;;;;;;5124844;28;20365;-85
2021/07/25 03:13:39;;;;;;;18.40;15.77;;;18.00;99.90;;;;;;5127397;28;20027;-87
2021/07/25 03:16:07;;;;;;;20.58;14.45;;;18.00;99.90;;;;;;5087006;28;20035;-86
2021/07/25 03:18:33;;;;;;;18.67;15.25;;;18.00;99.90;;;;;;5121593;28;20375;-89
2021/07/25 03:20:59;;;;;;;16.90;13.98;;;18.00;99.90;;;;;;5119087;28;20082;-86
2021/07/25 03:23:28;;;;;;;17.20;14.52;;;18.00;99.90;;;;;;5102471;28;20024;-87
2021/07/25 03:25:54;;;;;;;20.13;16.63;;;18.10;99.90;;;;;;5086578;28;20035;-88
2021/07/25 03:28:20;;;;;;;17.95;15.68;;;18.00;99.90;;;;;;5104155;27;20015;-87
2021/07/25 03:30:47;;;;;;;17.60;14.00;;;18.00;99.90;;;;;;5103669;27;20012;-87
2021/07/25 03:33:16;;;;;;;18.38;14.60;;;18.00;99.90;;;;;;5120938;28;20108;-88
2021/07/25 03:35:42;;;;;;;16.77;14.98;;;18.00;99.90;;;;;;5102827;28;20040;-87
2021/07/25 03:38:10;;;;;;;19.58;15.45;;;17.90;99.90;;;;;;5120392;28;20175;-85
2021/07/25 03:40:37;;;;;;;18.60;15.27;;;17.90;99.90;;;;;;5110326;27;20032;-87
2021/07/25 03:43:03;;;;;;;17.40;15.40;;;17.90;99.90;;;;;;5123137;27;20035;-85
2021/07/25 03:45:29;;;;;;;18.25;15.13;;;17.90;99.90;;;;;;5138157;27;20027;-88
2021/07/25 03:47:56;;;;;;;19.67;15.52;;;17.90;99.90;;;;;;5116753;28;20091;-89
2021/07/25 03:50:22;;;;;;;17.63;15.52;;;17.90;99.90;;;;;;5108569;28;20036;-88
2021/07/25 03:52:48;;;;;;;21.40;17.55;;;17.90;99.90;;;;;;5087179;28;20035;-89
2021/07/25 03:55:17;;;;;;;16.65;14.75;;;17.90;99.90;;;;;;5086302;28;20028;-89
2021/07/25 03:57:43;;;;;;;16.80;15.00;;;17.80;99.90;;;;;;5120370;28;20036;-87
2021/07/25 04:00:20;;;;;;;21.27;15.45;;;17.80;99.90;;;;;;5086518;28;20031;-87
2021/07/25 04:02:47;;;;;;;18.58;15.30;;;17.70;99.90;;;;;;5088107;28;20020;-88
2021/07/25 04:05:14;;;;;;;16.92;15.13;;;17.80;99.90;;;;;;5102081;28;20034;-86
2021/07/25 04:07:43;;;;;;;18.92;15.70;;;17.70;99.90;;;;;;5101296;28;20074;-88
2021/07/25 04:10:09;;;;;;;19.05;15.73;;;17.70;99.90;;;;;;5101542;28;20028;-89
2021/07/25 04:12:37;;;;;;;16.67;14.18;;;17.70;99.90;;;;;;5085121;28;20031;-88
2021/07/25 04:15:04;;;;;;;16.65;14.20;;;17.70;99.90;;;;;;5118996;28;20463;-87
2021/07/25 04:17:35;;;;;;;16.33;14.20;;;17.70;99.90;;;;;;5119879;28;20483;-88
2021/07/25 04:20:03;;;;;;;16.17;14.00;;;17.70;99.90;;;;;;5101705;28;20500;-86
2021/07/25 04:22:34;;;;;;;16.00;13.40;;;17.70;99.90;;;;;;5119900;28;20373;-88
2021/07/25 04:24:59;;;;;;;16.73;13.43;;;17.70;99.90;;;;;;5101435;28;20034;-86
2021/07/25 04:27:44;;;;;;;16.30;14.15;;;17.70;99.90;;;;;;5101903;28;20079;-86
2021/07/25 04:30:11;;;;;;;16.55;13.65;;;17.80;99.90;;;;;;5118328;28;20027;-87
2021/07/25 04:32:37;;;;;;;15.95;12.98;;;17.80;99.90;;;;;;5100773;28;20028;-87
2021/07/25 04:35:08;;;;;;;15.13;12.82;;;17.90;99.90;;;;;;5119754;28;20555;-87
2021/07/25 04:37:48;;;;;;;15.00;12.30;;;17.90;99.90;;;;;;5119268;28;20049;-87
2021/07/25 04:40:21;;;;;;;16.10;13.57;;;18.00;99.90;;;;;;5070175;28;20039;-87
2021/07/25 04:42:49;;;;;;;;;;;18.00;99.90;;;;;;5120296;28;20079;-87
2021/07/25 04:45:19;;;;;;;18.10;15.93;;;18.00;99.90;;;;;;5101517;28;19904;-86
2021/07/25 04:48:22;;;;;;;16.67;14.30;;;18.10;99.90;;;;;;5101153;28;20024;-86
2021/07/25 04:50:52;;;;;;;19.20;16.70;;;18.10;99.90;;;;;;5088328;28;20036;-86
2021/07/25 04:53:25;;;;;;;17.05;14.82;;;18.10;99.90;;;;;;5082746;28;20054;-88
2021/07/25 04:56:11;;;;;;;22.27;17.08;;;18.10;99.90;;;;;;5100647;28;20019;-86
2021/07/25 04:59:01;;;;;;;20.65;16.50;;;18.20;99.90;;;;;;5100458;28;20040;-86
2021/07/25 05:01:30;;;;;;;16.17;14.45;;;18.20;99.90;;;;;;5100870;28;20024;-88
2021/07/25 05:03:57;;;;;;;19.13;15.55;;;18.10;99.90;;;;;;5100690;28;20480;-87
2021/07/25 05:06:31;;;;;;;14.98;13.10;;;18.10;99.90;;;;;;5099906;28;20031;-87
2021/07/25 05:08:58;;;;;;;16.75;12.77;;;18.20;99.90;;;;;;5118107;28;20119;-88
2021/07/25 05:11:42;;;;;;;14.73;12.93;;;18.10;99.90;;;;;;5100662;28;20031;-86
2021/07/25 05:14:21;;;;;;;14.10;12.48;;;18.10;99.90;;;;;;5099321;28;20044;-87
2021/07/25 05:17:10;;;;;;;14.20;12.50;;;18.10;99.90;;;;;;5100074;28;20084;-86
2021/07/25 05:19:56;;;;;;;12.90;11.38;;;18.10;99.90;;;;;;5099888;28;20020;-86
2021/07/25 05:23:03;;;;;;;13.88;11.88;;;18.10;99.90;;;;;;5083216;28;20379;-83
2021/07/25 05:25:31;;;;;;;14.48;11.52;;;18.10;99.90;;;;;;5107212;28;20044;-85
2021/07/25 05:28:04;;;;;;;15.43;12.88;;;18.10;99.90;;;;;;5082434;28;20032;-84
2021/07/25 05:30:31;;;;;;;15.57;12.73;;;18.20;99.90;;;;;;5122900;27;20008;-85
2021/07/25 05:32:56;;;;;;;17.33;13.63;;;18.20;99.90;;;;;;5137276;27;20008;-85
2021/07/25 05:35:23;;;;;;;14.48;11.80;;;18.30;99.90;;;;;;5116385;28;20084;-85
2021/07/25 05:37:50;;;;;;;14.63;12.35;;;18.40;99.90;;;;;;5083132;28;20032;-84
2021/07/25 05:40:19;;;;;;;13.20;11.27;;;18.50;99.90;;;;;;5118263;28;20019;-86
2021/07/25 05:42:46;;;;;;;12.38;9.82;;;18.60;99.90;;;;;;5083412;28;20027;-86
2021/07/25 05:45:14;;;;;;;13.15;10.35;;;18.80;99.90;;;;;;5101001;28;20043;-86
2021/07/25 05:47:45;;;;;;;11.07;8.80;;;19.00;99.90;;;;;;5100188;28;20035;-87
2021/07/25 05:50:13;;;;;;;10.75;8.95;;;19.10;99.90;;;;;;5119288;28;20023;-88
2021/07/25 05:52:44;;;;;;;9.32;8.02;;;19.20;99.90;;;;;;5119677;27;20047;-87
2021/07/25 05:55:12;;;;;;;11.32;8.68;;;19.40;99.90;;;;;;5123199;28;20062;-87
2021/07/25 05:57:37;;;;;;;9.50;8.00;;;19.50;99.90;;;;;;5108653;28;20028;-87
2021/07/25 06:00:05;;;;;;;13.25;9.68;;;19.50;99.90;;;;;;5086020;28;20099;-88
2021/07/25 06:02:48;;;;;;;10.35;9.20;;;19.60;99.90;;;;;;5099470;28;20028;-87
2021/07/25 06:05:13;;;;;;;10.18;8.63;;;19.70;99.90;;;;;;5079380;28;20468;-88
2021/07/25 06:07:39;;;;;;;9.35;7.45;;;19.70;99.90;;;;;;5080358;28;20035;-89
2021/07/25 06:10:05;;;;;;;8.98;7.80;;;19.70;99.90;;;;;;5079728;28;20457;-88
2021/07/25 06:12:31;;;;;;;9.68;7.65;;;19.80;99.90;;;;;;5079984;28;20032;-85
2021/07/25 06:15:00;;;;;;;8.07;6.95;;;19.90;99.90;;;;;;5108429;28;20027;-88
2021/07/25 06:17:29;;;;;;;9.90;8.18;;;20.00;99.90;;;;;;5138959;27;20023;-87
2021/07/25 06:19:56;;;;;;;9.40;7.43;;;20.00;99.90;;;;;;5140045;27;20077;-89
2021/07/25 06:22:23;;;;;;;8.77;7.88;;;20.00;99.90;;;;;;5124268;27;20374;-88
2021/07/25 06:24:51;;;;;;;8.88;7.55;;;20.00;99.90;;;;;;5142771;27;20031;-88
2021/07/25 06:27:17;;;;;;;8.45;7.07;;;20.00;99.90;;;;;;5107856;27;20031;-88
2021/07/25 06:29:48;;;;;;;8.55;6.53;;;20.10;99.90;;;;;;5142874;27;20023;-88
2021/07/25 06:32:20;;;;;;;8.52;7.10;;;20.20;99.90;;;;;;5123184;27;20077;-88
2021/07/25 06:34:48;;;;;;;7.60;6.50;;;20.20;99.90;;;;;;5142072;27;20075;-87
2021/07/25 06:37:16;;;;;;;9.10;7.40;;;20.30;99.90;;;;;;5134637;27;20029;-86
2021/07/25 06:39:45;;;;;;;9.15;7.30;;;20.30;99.90;;;;;;5146013;27;20459;-87
2021/07/25 06:42:14;;;;;;;9.15;7.28;;;20.30;99.90;;;;;;5123812;27;20394;-87
2021/07/25 06:44:44;;;;;;;9.68;7.50;;;20.20;99.90;;;;;;5123012;27;20069;-86
2021/07/25 06:47:14;;;;;;;8.95;7.00;;;20.20;99.90;;;;;;5122921;27;20062;-89
2021/07/25 06:49:40;;;;;;;9.38;7.40;;;20.10;99.90;;;;;;5123340;27;20047;-88
2021/07/25 06:52:07;;;;;;;9.02;7.03;;;20.10;99.90;;;;;;5141812;27;20026;-87
2021/07/25 06:54:34;;;;;;;11.32;7.57;;;20.10;99.90;;;;;;5089273;28;20047;-87
2021/07/25 06:57:02;;;;;;;8.07;6.40;;;20.10;99.90;;;;;;5108437;27;20034;-87
2021/07/25 06:59:32;;;;;;;7.93;6.60;;;20.00;99.90;;;;;;5123122;27;20044;-88
2021/07/25 07:02:01;;;;;;;10.85;7.22;;;20.10;99.90;;;;;;5130028;27;20031;-85
2021/07/25 07:04:27;;;;;;;8.75;6.80;;;20.10;99.90;;;;;;5104056;27;20487;-87
2021/07/25 07:06:57;;;;;;;9.02;6.78;;;20.10;99.90;;;;;;5132807;27;20046;-87
2021/07/25 07:09:27;;;;;;;9.48;7.45;;;20.20;99.90;;;;;;5131381;27;20012;-86
2021/07/25 07:11:53;;;;;;;8.18;6.70;;;20.20;99.90;;;;;;5126763;27;20072;-86
2021/07/25 07:14:20;;;;;;;8.80;7.03;;;20.20;99.90;;;;;;5107668;27;20019;-85
2021/07/25 07:16:47;;;;;;;7.88;6.05;;;20.40;99.90;;;;;;5097203;27;20027;-84
2021/07/25 07:19:16;;;;;;;9.23;6.65;;;20.40;99.90;;;;;;5119909;27;20062;-86
2021/07/25 07:21:44;;;;;;;7.32;5.80;;;20.50;99.90;;;;;;5118650;28;20003;-86
2021/07/25 07:24:19;;;;;;;8.13;5.95;;;20.60;99.90;;;;;;5119590;28;20007;-86
2021/07/25 07:26:45;;;;;;;8.70;6.40;;;20.60;99.90;;;;;;5102827;28;20070;-86
2021/07/25 07:29:20;;;;;;;7.88;6.78;;;20.70;99.90;;;;;;5086612;27;20019;-85
2021/07/25 07:31:55;;;;;;;8.02;6.25;;;20.70;99.90;;;;;;5090704;27;20051;-86
2021/07/25 07:34:24;;;;;;;8.52;6.43;;;20.70;99.90;;;;;;5101804;27;20486;-86
2021/07/25 07:36:52;;;;;;;7.78;6.40;;;20.70;99.90;;;;;;5114515;27;20019;-87
2021/07/25 07:39:38;;;;;;;8.43;6.50;;;20.80;99.90;;;;;;5097101;27;20517;-86
2021/07/25 07:42:32;;;;;;;8.07;6.07;;;20.80;99.90;;;;;;5126829;27;20115;-84
2021/07/25 07:45:03;;;;;;;8.07;5.55;;;20.90;99.90;;;;;;5135235;27;20031;-83
2021/07/25 07:47:37;;;;;;;8.35;5.57;;;21.00;99.90;;;;;;5158034;27;20023;-85
2021/07/25 07:50:06;;;;;;;8.45;6.57;;;21.00;99.90;;;;;;5136530;27;20035;-87
2021/07/25 07:52:32;;;;;;;8.40;5.93;;;21.00;99.90;;;;;;5123743;27;20482;-86
2021/07/25 07:55:07;;;;;;;8.10;6.05;;;21.10;99.90;;;;;;5142819;27;20029;-85
2021/07/25 07:57:37;;;;;;;7.45;5.05;;;21.20;99.90;;;;;;5128952;27;20043;-87
2021/07/25 08:00:21;;;;;;;7.78;5.30;;;21.30;99.90;;;;;;5129312;27;20026;-86
2021/07/25 08:03:16;;;;;;;6.85;4.60;;;21.40;99.90;;;;;;5138406;27;20051;-86
2021/07/25 08:05:53;;;;;;;6.50;4.88;;;21.50;99.90;;;;;;5137310;27;20038;-86
2021/07/25 08:08:21;;;;;;;7.38;4.47;;;21.50;99.90;;;;;;5114946;27;20035;-86
2021/07/25 08:11:07;;;;;;;5.43;3.92;;;21.50;99.90;;;;;;5070827;28;20411;-87
2021/07/25 08:13:38;;;;;;;7.78;5.55;;;21.60;99.90;;;;;;5097733;28;20019;-87
2021/07/25 08:16:20;;;;;;;5.82;4.60;;;21.70;99.90;;;;;;5088174;28;20032;-85
2021/07/25 08:18:54;;;;;;;9.00;6.07;;;21.80;99.90;;;;;;5118567;28;20024;-86
2021/07/25 08:24:19;;;;;;;6.97;5.38;;;22.00;99.90;;;;;;5075893;28;20068;-87
2021/07/25 08:26:51;;;;;;;6.57;5.15;;;22.20;99.90;;;;;;5100229;28;20040;-87
2021/07/25 08:29:43;;;;;;;7.05;4.80;;;22.40;99.90;;;;;;5096230;28;20027;-88
2021/07/25 08:32:17;;;;;;;8.55;5.28;;;22.60;99.90;;;;;;5099318;28;20027;-88
2021/07/25 08:34:45;;;;;;;7.55;5.88;;;22.80;99.90;;;;;;5073871;28;20209;-87
2021/07/25 08:37:17;;;;;;;5.80;4.68;;;22.80;99.90;;;;;;5044945;28;20039;-86
2021/07/25 08:39:52;;;;;;;;;;;23.10;99.90;;;;;;5062554;28;20031;-88
2021/07/25 08:42:20;;;;;;;4.95;3.83;;;23.30;99.90;;;;;;5078491;28;19912;-86
2021/07/25 08:44:58;;;;;;;8.15;5.93;;;23.50;99.90;;;;;;5096113;28;20047;-88
2021/07/25 08:47:40;;;;;;;8.40;4.93;;;23.70;99.90;;;;;;5079157;28;20027;-86
2021/07/25 08:51:06;;;;;;;6.95;4.65;;;23.70;99.90;;;;;;5096308;28;20036;-91
2021/07/25 08:57:17;;;;;;;6.43;4.57;;;23.70;99.90;;;;;;5071804;28;20040;-89
2021/07/25 08:59:54;;;;;;;4.97;3.80;;;23.50;99.90;;;;;;5097487;28;20031;-88
2021/07/25 09:06:28;;;;;;;;;;;;;;;;;;;;;
2021/07/25 09:09:35;;;;;;;6.28;4.57;;;23.50;99.90;;;;;;5033217;28;20112;-90
2021/07/25 09:12:52;;;;;;;5.05;3.60;;;23.50;99.90;;;;;;5081686;28;20082;-87
2021/07/25 09:15:54;;;;;;;5.95;4.78;;;23.60;99.90;;;;;;5118459;27;20082;-88
2021/07/25 09:22:06;;;;;;;6.38;4.32;;;23.80;99.90;;;;;;5072616;28;20199;-89
2021/07/25 09:24:42;;;;;;;6.78;4.32;;;23.90;99.90;;;;;;5075601;28;20075;-88
2021/07/25 09:27:31;;;;;;;5.72;4.45;;;24.00;99.90;;;;;;5085330;28;20016;-91
2021/07/25 09:30:44;;;;;;;6.18;4.32;;;24.10;99.90;;;;;;5114004;28;20019;-89
2021/07/25 09:37:48;;;;;;;;;;;;;;;;;;;;;
2021/07/25 09:44:16;;;;;;;4.45;3.47;;;25.20;99.90;;;;;;4991242;28;20038;-90
2021/07/25 09:50:36;;;;;;;6.90;4.32;;;28.30;99.90;;;;;;5041781;28;20035;-88
2021/07/25 09:53:19;;;;;;;5.25;3.33;;;29.30;99.90;;;;;;5104699;28;20440;-88
2021/07/25 09:55:59;;;;;;;4.90;3.83;;;30.00;99.40;;;;;;5101492;28;20379;-90
2021/07/25 09:58:44;;;;;;;5.57;4.40;;;30.60;98.80;;;;;;5084910;28;20031;-89
2021/07/25 10:04:38;;;;;;;4.78;3.58;;;30.30;97.60;;;;;;5076138;28;20047;-89
2021/07/25 10:07:44;;;;;;;5.53;3.45;;;30.50;97.20;;;;;;5102370;28;20110;-89
2021/07/25 10:10:46;;;;;;;;;;;;;;;;;;;;;
2021/07/25 10:13:48;;;;;;;4.57;3.67;;;31.60;95.20;;;;;;5141260;27;20106;-89
2021/07/25 10:16:40;;;;;;;5.57;4.00;;;31.80;93.90;;;;;;5123341;27;20023;-89
2021/07/25 10:19:16;;;;;;;6.25;3.88;;;31.80;92.50;;;;;;5123300;27;20264;-90
2021/07/25 10:21:45;;;;;;;5.20;3.92;;;31.40;92.70;;;;;;5122177;27;20043;-88
2021/07/25 10:24:31;;;;;;;5.18;3.45;;;31.50;91.80;;;;;;5122362;27;20463;-88
2021/07/25 10:27:06;;;;;;;5.72;4.13;;;31.80;91.80;;;;;;5106692;27;20360;-89
2021/07/25 10:29:32;;;;;;;4.57;3.58;;;32.10;90.90;;;;;;5121565;27;20031;-88
2021/07/25 10:35:10;;;;;;;5.18;3.95;;;33.20;88.50;;;;;;5123136;27;20544;-87
2021/07/25 10:37:38;;;;;;;5.55;3.70;;;33.50;87.60;;;;;;5120969;27;20475;-87
2021/07/25 10:40:07;;;;;;;6.00;3.92;;;33.80;85.60;;;;;;5139366;27;20469;-86
2021/07/25 10:43:27;;;;;;;4.47;3.90;;;33.90;84.40;;;;;;5139162;27;20023;-87
2021/07/25 10:46:25;;;;;;;5.38;3.95;;;33.40;82.10;;;;;;5075802;28;20504;-86
2021/07/25 10:49:10;;;;;;;;;;;;;;;;;;;;;
2021/07/25 10:52:05;;;;;;;4.78;3.60;;;32.70;83.60;;;;;;5138751;27;20102;-87
2021/07/25 10:55:02;;;;;;;4.60;3.63;;;31.50;84.60;;;;;;5121139;27;20064;-88
2021/07/25 10:58:05;;;;;;;5.57;3.90;;;30.40;87.40;;;;;;5053574;28;20041;-87
2021/07/25 11:01:01;;;;;;;5.07;3.60;;;29.40;88.80;;;;;;5059920;28;20017;-85
2021/07/25 11:03:34;;;;;;;4.82;3.42;;;28.60;90.40;;;;;;5132618;27;20285;-88
2021/07/25 11:06:11;;;;;;;8.32;5.00;;;28.40;91.10;;;;;;5120973;27;20076;-89
2021/07/25 11:08:47;;;;;;;5.18;4.18;;;28.20;91.10;;;;;;5139745;27;20031;-89
2021/07/25 11:11:39;;;;;;;5.80;4.10;;;28.20;91.50;;;;;;5123741;27;20034;-90
2021/07/25 11:14:30;;;;;;;6.23;4.53;;;28.80;91.50;;;;;;5123463;27;20115;-89
2021/07/25 11:18:11;;;;;;;;;;;;;;;;;;;;;
2021/07/25 11:21:04;;;;;;;4.47;3.60;;;30.60;89.70;;;;;;5144103;27;20027;-89
2021/07/25 11:23:53;;;;;;;4.90;3.60;;;31.70;88.80;;;;;;5125594;27;20035;-88
2021/07/25 11:26:43;;;;;;;;;;;;;;;;;;;;;
2021/07/25 11:29:11;;;;;;;5.22;3.55;;;33.50;85.70;;;;;;5125948;27;20107;-89
2021/07/25 11:31:53;;;;;;;3.92;2.97;;;34.20;83.00;;;;;;5123267;27;20020;-89
2021/07/25 11:35:01;;;;;;;5.47;3.10;;;34.10;81.90;;;;;;5142752;27;20023;-89
2021/07/25 11:37:44;;;;;;;4.32;3.10;;;33.30;82.10;;;;;;5121673;28;20036;-88
2021/07/25 11:40:16;;;;;;;5.60;3.38;;;32.20;83.20;;;;;;5103011;28;20483;-89
2021/07/25 11:55:41;;;;;;;4.70;3.20;;;29.90;86.70;;;;;;5050405;22;20155;-87
2021/07/25 11:58:13;;;;;;;4.25;3.13;;;30.60;85.90;;;;;;5041046;28;20466;-87
2021/07/25 12:00:39;;;;;;;4.55;2.83;;;31.60;84.30;;;;;;5031877;28;20398;-87
2021/07/25 12:03:05;;;;;;;3.88;2.70;;;32.60;82.70;;;;;;5039350;28;20032;-89
2021/07/25 12:05:36;;;;;;;4.32;2.90;;;32.80;81.40;;;;;;5044652;28;20489;-91
2021/07/25 12:08:12;;;;;;;3.80;2.60;;;32.30;80.90;;;;;;5050428;28;20417;-90
2021/07/25 12:10:39;;;;;;;3.17;2.53;;;32.40;80.90;;;;;;5039361;28;20378;-89
2021/07/25 12:13:13;;;;;;;4.80;2.70;;;33.00;80.30;;;;;;5041214;28;20397;-89
2021/07/25 12:15:40;;;;;;;4.85;3.10;;;33.00;79.20;;;;;;5039363;28;20505;-90
2021/07/25 12:18:08;;;;;;;4.18;3.08;;;32.50;78.40;;;;;;5038779;28;20467;-90
2021/07/25 12:20:36;;;;;;;4.20;2.80;;;32.00;79.70;;;;;;5040302;28;20026;-90
2021/07/25 12:23:09;;;;;;;4.32;2.88;;;32.00;80.00;;;;;;5039590;28;20091;-92
2021/07/25 12:25:48;;;;;;;4.63;2.83;;;32.00;79.00;;;;;;5039161;28;20446;-88
2021/07/25 12:35:20;;;;;;;4.15;2.13;;;30.10;81.20;;;;;;4977514;28;20048;-89
2021/07/25 12:37:57;;;;;;;3.90;2.55;;;29.90;82.50;;;;;;5039788;28;20438;-91
2021/07/25 12:40:25;;;;;;;3.42;2.20;;;30.60;82.70;;;;;;5039168;28;20021;-87
2021/07/25 12:42:57;;;;;;;3.47;2.17;;;31.70;81.30;;;;;;5039080;28;20018;-88
2021/07/25 12:45:36;;;;;;;4.63;2.20;;;32.90;79.10;;;;;;5038438;28;20469;-86
2021/07/25 12:48:09;;;;;;;4.40;2.72;;;33.40;75.90;;;;;;5037218;28;20474;-85
2021/07/25 12:53:44;;;;;;;4.20;2.72;;;32.10;74.60;;;;;;5038679;28;20463;-86
2021/07/25 12:56:30;;;;;;;3.50;2.17;;;31.60;76.20;;;;;;5036995;28;20364;-87
2021/07/25 12:59:02;;;;;;;4.35;2.30;;;32.30;76.20;;;;;;5036337;28;20391;-86
2021/07/25 13:04:07;;;;;;;4.10;2.00;;;34.20;73.30;;;;;;5038009;28;20032;-83
2021/07/25 13:06:39;;;;;;;3.65;2.17;;;34.50;72.00;;;;;;5036855;28;20498;-85
2021/07/25 13:09:08;;;;;;;3.63;2.00;;;35.20;71.60;;;;;;5038830;28;20451;-86
2021/07/25 13:11:55;;;;;;;3.17;1.98;;;35.70;70.60;;;;;;5038143;28;20415;-85
2021/07/25 13:14:29;;;;;;;3.35;1.90;;;36.20;70.00;;;;;;5036150;28;20021;-85
2021/07/25 13:16:57;;;;;;;3.00;1.77;;;36.40;68.00;;;;;;5036323;28;20021;-84
2021/07/25 13:19:24;;;;;;;2.67;1.90;;;36.20;67.80;;;;;;5036193;28;20427;-84
2021/07/25 13:21:51;;;;;;;2.65;1.73;;;36.30;67.60;;;;;;5035849;28;20018;-83
2021/07/25 13:24:18;;;;;;;3.20;1.65;;;36.20;66.80;;;;;;5035661;28;20404;-86
2021/07/25 13:26:44;;;;;;;2.17;1.60;;;35.80;67.50;;;;;;5035547;28;20356;-84
2021/07/25 13:29:11;;;;;;;2.90;1.58;;;35.30;67.50;;;;;;5035983;28;20434;-83
2021/07/25 13:31:37;;;;;;;4.18;1.95;;;34.60;67.70;;;;;;5020157;28;20424;-85
2021/07/25 13:34:03;;;;;;;5.90;2.20;;;34.10;67.60;;;;;;5037090;28;20035;-87
2021/07/25 13:36:32;;;;;;;3.20;1.90;;;33.70;66.40;;;;;;5041430;28;20090;-87
2021/07/25 13:39:01;;;;;;;2.70;1.60;;;33.10;67.10;;;;;;5008829;28;20182;-84
2021/07/25 13:41:29;;;;;;;4.82;2.00;;;32.50;67.60;;;;;;5040701;28;20028;-88
2021/07/25 13:44:00;;;;;;;3.42;1.63;;;31.90;68.20;;;;;;5038800;28;20025;-91
2021/07/25 13:49:37;;;;;;;2.55;1.67;;;30.90;70.00;;;;;;5037927;28;20025;-92
2021/07/25 13:52:05;;;;;;;2.88;1.60;;;30.50;71.10;;;;;;5038915;28;20115;-92
2021/07/25 13:54:36;;;;;;;3.88;2.03;;;30.30;71.70;;;;;;5039764;28;20414;-92
2021/07/25 13:57:03;;;;;;;4.47;1.83;;;30.10;71.70;;;;;;5040858;28;20029;-88
2021/07/25 13:59:34;;;;;;;2.88;1.42;;;29.90;72.10;;;;;;5043596;28;20467;-93
2021/07/25 14:02:01;;;;;;;2.90;1.67;;;29.60;72.10;;;;;;5043982;28;20026;-90
2021/07/25 14:04:28;;;;;;;2.63;1.60;;;29.50;72.60;;;;;;5041284;28;20362;-90
2021/07/25 14:06:55;;;;;;;2.55;1.50;;;29.50;72.90;;;;;;5039394;28;20021;-91
2021/07/25 14:09:22;;;;;;;4.38;1.80;;;29.70;73.10;;;;;;5039316;28;20017;-90
2021/07/25 14:11:50;;;;;;;2.25;1.60;;;29.80;72.70;;;;;;5037850;28;20116;-87
2021/07/25 14:14:20;;;;;;;3.00;1.50;;;30.00;73.10;;;;;;5038274;28;20467;-90
2021/07/25 14:16:49;;;;;;;2.85;1.60;;;30.30;73.00;;;;;;5040132;28;20423;-87
2021/07/25 14:19:17;;;;;;;2.70;1.67;;;30.40;72.70;;;;;;5039917;28;20040;-90